sensor_id;sensor_type;location;lat;lon;timestamp;pressure;altitude;pressure_sealevel;temperature;humidity
34237;BME280;20501;45.956;13.632;2024-01-30T00:00:37;102554.25;;;4.73;58.51
34237;BME280;20501;45.956;13.632;2024-01-30T00:03:03;102558.97;;;4.65;59.05
34237;BME280;20501;45.956;13.632;2024-01-30T00:05:28;102549.56;;;4.78;58.48
34237;BME280;20501;45.956;13.632;2024-01-30T00:07:54;102552.16;;;4.82;57.62
34237;BME280;20501;45.956;13.632;2024-01-30T00:10:19;102552.47;;;4.47;59.16
34237;BME280;20501;45.956;13.632;2024-01-30T00:12:46;102553.72;;;4.08;60.38
34237;BME280;20501;45.956;13.632;2024-01-30T00:15:11;102557.13;;;4.40;59.66
34237;BME280;20501;45.956;13.632;2024-01-30T00:17:37;102560.38;;;3.95;61.10
34237;BME280;20501;45.956;13.632;2024-01-30T00:20:03;102559.63;;;4.18;60.58
34237;BME280;20501;45.956;13.632;2024-01-30T00:22:32;102551.81;;;4.39;59.93
34237;BME280;20501;45.956;13.632;2024-01-30T00:24:58;102561.22;;;4.24;60.44
34237;BME280;20501;45.956;13.632;2024-01-30T00:27:23;102553.22;;;3.67;62.29
34237;BME280;20501;45.956;13.632;2024-01-30T00:29:49;102549.09;;;3.85;61.78
34237;BME280;20501;45.956;13.632;2024-01-30T00:32:14;102551.94;;;3.50;62.91
34237;BME280;20501;45.956;13.632;2024-01-30T00:34:41;102551.03;;;3.80;61.84
34237;BME280;20501;45.956;13.632;2024-01-30T00:37:06;102553.22;;;3.95;61.67
34237;BME280;20501;45.956;13.632;2024-01-30T00:39:32;102550.00;;;3.84;62.19
34237;BME280;20501;45.956;13.632;2024-01-30T00:41:57;102547.22;;;3.89;61.24
34237;BME280;20501;45.956;13.632;2024-01-30T00:44:23;102544.94;;;3.76;61.26
34237;BME280;20501;45.956;13.632;2024-01-30T00:46:48;102545.88;;;4.02;60.92
34237;BME280;20501;45.956;13.632;2024-01-30T00:49:14;102547.59;;;3.76;61.85
34237;BME280;20501;45.956;13.632;2024-01-30T00:51:40;102543.41;;;3.96;61.72
34237;BME280;20501;45.956;13.632;2024-01-30T00:54:05;102541.09;;;3.55;62.65
34237;BME280;20501;45.956;13.632;2024-01-30T00:56:31;102543.66;;;3.88;62.30
34237;BME280;20501;45.956;13.632;2024-01-30T00:58:57;102537.91;;;4.00;61.75
34237;BME280;20501;45.956;13.632;2024-01-30T01:01:22;102539.38;;;4.11;61.09
34237;BME280;20501;45.956;13.632;2024-01-30T01:03:48;102539.66;;;3.73;61.88
34237;BME280;20501;45.956;13.632;2024-01-30T01:06:13;102538.97;;;3.66;62.56
34237;BME280;20501;45.956;13.632;2024-01-30T01:08:39;102541.81;;;3.90;61.87
34237;BME280;20501;45.956;13.632;2024-01-30T01:11:05;102532.19;;;4.13;61.30
34237;BME280;20501;45.956;13.632;2024-01-30T01:13:30;102526.59;;;3.92;61.66
34237;BME280;20501;45.956;13.632;2024-01-30T01:15:56;102541.81;;;3.90;61.81
34237;BME280;20501;45.956;13.632;2024-01-30T01:18:21;102536.78;;;4.08;60.81
34237;BME280;20501;45.956;13.632;2024-01-30T01:20:47;102532.47;;;3.75;62.21
34237;BME280;20501;45.956;13.632;2024-01-30T01:23:12;102529.50;;;3.56;62.84
34237;BME280;20501;45.956;13.632;2024-01-30T01:25:38;102529.28;;;3.92;62.04
34237;BME280;20501;45.956;13.632;2024-01-30T01:28:03;102520.94;;;3.73;62.04
34237;BME280;20501;45.956;13.632;2024-01-30T01:30:29;102518.59;;;3.91;61.87
34237;BME280;20501;45.956;13.632;2024-01-30T01:32:55;102517.50;;;3.69;62.18
34237;BME280;20501;45.956;13.632;2024-01-30T01:35:24;102516.13;;;3.56;61.99
34237;BME280;20501;45.956;13.632;2024-01-30T01:37:51;102522.47;;;3.52;63.18
34237;BME280;20501;45.956;13.632;2024-01-30T01:40:23;102516.06;;;3.58;62.52
34237;BME280;20501;45.956;13.632;2024-01-30T01:42:50;102508.41;;;3.15;63.48
34237;BME280;20501;45.956;13.632;2024-01-30T01:45:17;102509.50;;;3.68;62.24
34237;BME280;20501;45.956;13.632;2024-01-30T01:47:43;102511.19;;;3.72;62.06
34237;BME280;20501;45.956;13.632;2024-01-30T01:50:12;102507.81;;;3.65;62.63
34237;BME280;20501;45.956;13.632;2024-01-30T01:52:38;102497.75;;;3.45;63.22
34237;BME280;20501;45.956;13.632;2024-01-30T01:55:04;102504.22;;;3.66;62.18
34237;BME280;20501;45.956;13.632;2024-01-30T01:57:30;102497.19;;;3.64;62.26
34237;BME280;20501;45.956;13.632;2024-01-30T01:59:55;102507.63;;;3.41;62.85
34237;BME280;20501;45.956;13.632;2024-01-30T02:02:23;102508.81;;;3.33;63.21
34237;BME280;20501;45.956;13.632;2024-01-30T02:04:50;102495.63;;;3.27;63.61
34237;BME280;20501;45.956;13.632;2024-01-30T02:07:15;102495.81;;;3.50;62.78
34237;BME280;20501;45.956;13.632;2024-01-30T02:09:41;102493.38;;;3.43;62.97
34237;BME280;20501;45.956;13.632;2024-01-30T02:12:06;102495.88;;;3.49;62.92
34237;BME280;20501;45.956;13.632;2024-01-30T02:14:31;102492.81;;;3.01;64.22
34237;BME280;20501;45.956;13.632;2024-01-30T02:16:57;102497.16;;;3.05;64.83
34237;BME280;20501;45.956;13.632;2024-01-30T02:19:22;102486.72;;;2.96;64.69
34237;BME280;20501;45.956;13.632;2024-01-30T02:21:48;102487.59;;;2.97;64.73
34237;BME280;20501;45.956;13.632;2024-01-30T02:24:13;102503.06;;;3.15;64.32
34237;BME280;20501;45.956;13.632;2024-01-30T02:26:39;102495.97;;;3.16;63.90
34237;BME280;20501;45.956;13.632;2024-01-30T02:29:04;102499.69;;;3.40;63.69
34237;BME280;20501;45.956;13.632;2024-01-30T02:31:29;102507.22;;;2.62;65.38
34237;BME280;20501;45.956;13.632;2024-01-30T02:33:55;102492.09;;;2.94;65.25
34237;BME280;20501;45.956;13.632;2024-01-30T02:36:20;102494.28;;;3.12;64.30
34237;BME280;20501;45.956;13.632;2024-01-30T02:38:46;102499.13;;;3.29;64.10
34237;BME280;20501;45.956;13.632;2024-01-30T02:41:11;102491.00;;;2.70;65.80
34237;BME280;20501;45.956;13.632;2024-01-30T02:43:37;102494.13;;;2.53;65.86
34237;BME280;20501;45.956;13.632;2024-01-30T02:46:02;102494.84;;;2.60;65.67
34237;BME280;20501;45.956;13.632;2024-01-30T02:48:28;102493.78;;;2.97;64.69
34237;BME280;20501;45.956;13.632;2024-01-30T02:50:53;102483.34;;;2.89;64.79
34237;BME280;20501;45.956;13.632;2024-01-30T02:53:19;102484.50;;;3.12;63.80
34237;BME280;20501;45.956;13.632;2024-01-30T02:55:44;102480.50;;;2.96;64.54
34237;BME280;20501;45.956;13.632;2024-01-30T02:58:09;102473.53;;;2.90;64.93
34237;BME280;20501;45.956;13.632;2024-01-30T03:00:35;102485.78;;;2.97;64.51
34237;BME280;20501;45.956;13.632;2024-01-30T03:03:01;102484.22;;;2.57;65.81
34237;BME280;20501;45.956;13.632;2024-01-30T03:05:27;102485.28;;;2.84;65.19
34237;BME280;20501;45.956;13.632;2024-01-30T03:07:52;102477.81;;;2.96;64.35
34237;BME280;20501;45.956;13.632;2024-01-30T03:10:18;102479.84;;;2.87;64.55
34237;BME280;20501;45.956;13.632;2024-01-30T03:12:43;102483.44;;;3.18;63.53
34237;BME280;20501;45.956;13.632;2024-01-30T03:15:09;102483.56;;;3.13;63.11
34237;BME280;20501;45.956;13.632;2024-01-30T03:17:35;102479.50;;;3.30;62.82
34237;BME280;20501;45.956;13.632;2024-01-30T03:20:02;102492.59;;;3.39;62.22
34237;BME280;20501;45.956;13.632;2024-01-30T03:22:28;102480.22;;;3.05;62.94
34237;BME280;20501;45.956;13.632;2024-01-30T03:24:54;102481.06;;;3.07;63.24
34237;BME280;20501;45.956;13.632;2024-01-30T03:27:19;102480.06;;;3.41;62.48
34237;BME280;20501;45.956;13.632;2024-01-30T03:29:45;102485.81;;;3.57;61.50
34237;BME280;20501;45.956;13.632;2024-01-30T03:32:10;102475.03;;;3.30;62.50
34237;BME280;20501;45.956;13.632;2024-01-30T03:34:36;102473.16;;;3.34;62.31
34237;BME280;20501;45.956;13.632;2024-01-30T03:37:01;102479.16;;;2.81;63.42
34237;BME280;20501;45.956;13.632;2024-01-30T03:39:26;102478.81;;;3.23;62.99
34237;BME280;20501;45.956;13.632;2024-01-30T03:41:52;102474.72;;;2.79;63.91
34237;BME280;20501;45.956;13.632;2024-01-30T03:44:17;102481.75;;;2.49;65.32
34237;BME280;20501;45.956;13.632;2024-01-30T03:46:43;102477.13;;;2.57;64.80
34237;BME280;20501;45.956;13.632;2024-01-30T03:49:09;102470.56;;;2.69;65.53
34237;BME280;20501;45.956;13.632;2024-01-30T03:51:35;102479.78;;;2.90;63.83
34237;BME280;20501;45.956;13.632;2024-01-30T03:54:00;102479.97;;;3.14;63.17
34237;BME280;20501;45.956;13.632;2024-01-30T03:56:26;102477.06;;;3.22;63.15
34237;BME280;20501;45.956;13.632;2024-01-30T03:58:51;102475.81;;;3.04;63.70
34237;BME280;20501;45.956;13.632;2024-01-30T04:01:17;102477.41;;;3.11;63.37
34237;BME280;20501;45.956;13.632;2024-01-30T04:03:42;102472.34;;;3.30;62.93
34237;BME280;20501;45.956;13.632;2024-01-30T04:06:09;102472.84;;;3.15;62.99
34237;BME280;20501;45.956;13.632;2024-01-30T04:08:34;102466.72;;;3.11;64.12
34237;BME280;20501;45.956;13.632;2024-01-30T04:11:06;102461.19;;;2.54;64.74
34237;BME280;20501;45.956;13.632;2024-01-30T04:13:32;102468.19;;;2.90;63.70
34237;BME280;20501;45.956;13.632;2024-01-30T04:15:59;102474.25;;;2.30;66.20
34237;BME280;20501;45.956;13.632;2024-01-30T04:18:26;102468.94;;;2.63;64.75
34237;BME280;20501;45.956;13.632;2024-01-30T04:20:51;102460.28;;;2.87;64.10
34237;BME280;20501;45.956;13.632;2024-01-30T04:23:17;102464.31;;;3.32;62.53
34237;BME280;20501;45.956;13.632;2024-01-30T04:25:42;102465.53;;;3.78;61.36
34237;BME280;20501;45.956;13.632;2024-01-30T04:28:08;102462.81;;;4.07;61.07
34237;BME280;20501;45.956;13.632;2024-01-30T04:30:33;102468.91;;;3.27;61.16
34237;BME280;20501;45.956;13.632;2024-01-30T04:32:59;102459.34;;;2.88;63.17
34237;BME280;20501;45.956;13.632;2024-01-30T04:35:24;102468.69;;;3.34;61.90
34237;BME280;20501;45.956;13.632;2024-01-30T04:37:52;102463.34;;;3.63;60.92
34237;BME280;20501;45.956;13.632;2024-01-30T04:40:17;102464.88;;;3.41;61.42
34237;BME280;20501;45.956;13.632;2024-01-30T04:42:42;102465.28;;;3.58;60.86
34237;BME280;20501;45.956;13.632;2024-01-30T04:45:08;102454.50;;;3.32;61.13
34237;BME280;20501;45.956;13.632;2024-01-30T04:47:34;102463.91;;;2.84;62.92
34237;BME280;20501;45.956;13.632;2024-01-30T04:49:59;102457.25;;;2.99;62.39
34237;BME280;20501;45.956;13.632;2024-01-30T04:52:25;102460.13;;;2.93;62.29
34237;BME280;20501;45.956;13.632;2024-01-30T04:54:50;102457.22;;;3.01;62.50
34237;BME280;20501;45.956;13.632;2024-01-30T04:57:15;102469.38;;;3.11;61.62
34237;BME280;20501;45.956;13.632;2024-01-30T04:59:41;102473.53;;;3.21;61.20
34237;BME280;20501;45.956;13.632;2024-01-30T05:02:06;102475.59;;;3.12;61.47
34237;BME280;20501;45.956;13.632;2024-01-30T05:04:32;102482.88;;;3.06;61.73
34237;BME280;20501;45.956;13.632;2024-01-30T05:06:57;102480.00;;;2.50;63.42
34237;BME280;20501;45.956;13.632;2024-01-30T05:09:23;102490.13;;;2.37;64.04
34237;BME280;20501;45.956;13.632;2024-01-30T05:11:48;102483.28;;;2.26;64.16
34237;BME280;20501;45.956;13.632;2024-01-30T05:14:14;102476.94;;;2.63;63.69
34237;BME280;20501;45.956;13.632;2024-01-30T05:16:40;102482.47;;;2.89;62.61
34237;BME280;20501;45.956;13.632;2024-01-30T05:19:06;102481.69;;;3.17;61.45
34237;BME280;20501;45.956;13.632;2024-01-30T05:21:32;102479.03;;;3.15;61.42
34237;BME280;20501;45.956;13.632;2024-01-30T05:23:57;102474.50;;;3.47;60.26
34237;BME280;20501;45.956;13.632;2024-01-30T05:26:22;102483.81;;;3.64;58.93
34237;BME280;20501;45.956;13.632;2024-01-30T05:28:48;102480.53;;;3.55;60.09
34237;BME280;20501;45.956;13.632;2024-01-30T05:31:14;102482.75;;;3.69;59.13
34237;BME280;20501;45.956;13.632;2024-01-30T05:33:40;102486.97;;;3.48;59.70
34237;BME280;20501;45.956;13.632;2024-01-30T05:36:05;102481.31;;;3.58;59.29
34237;BME280;20501;45.956;13.632;2024-01-30T05:38:31;102486.84;;;4.08;57.88
34237;BME280;20501;45.956;13.632;2024-01-30T05:40:57;102483.78;;;4.21;56.72
34237;BME280;20501;45.956;13.632;2024-01-30T05:43:25;102480.72;;;4.31;56.53
34237;BME280;20501;45.956;13.632;2024-01-30T05:45:51;102489.31;;;4.41;55.92
34237;BME280;20501;45.956;13.632;2024-01-30T05:48:18;102482.03;;;4.45;55.48
34237;BME280;20501;45.956;13.632;2024-01-30T05:50:43;102492.72;;;4.20;56.06
34237;BME280;20501;45.956;13.632;2024-01-30T05:53:09;102493.31;;;4.01;56.95
34237;BME280;20501;45.956;13.632;2024-01-30T05:55:34;102492.44;;;4.27;56.28
34237;BME280;20501;45.956;13.632;2024-01-30T05:57:59;102496.66;;;4.08;56.98
34237;BME280;20501;45.956;13.632;2024-01-30T06:00:25;102497.94;;;3.96;57.80
34237;BME280;20501;45.956;13.632;2024-01-30T06:02:50;102499.13;;;3.87;57.89
34237;BME280;20501;45.956;13.632;2024-01-30T06:05:16;102497.47;;;3.54;58.79
34237;BME280;20501;45.956;13.632;2024-01-30T06:07:41;102496.34;;;3.62;58.28
34237;BME280;20501;45.956;13.632;2024-01-30T06:10:07;102495.56;;;3.58;58.37
34237;BME280;20501;45.956;13.632;2024-01-30T06:12:34;102492.56;;;3.69;58.92
34237;BME280;20501;45.956;13.632;2024-01-30T06:15:00;102493.09;;;3.80;58.17
34237;BME280;20501;45.956;13.632;2024-01-30T06:17:26;102506.19;;;4.16;57.17
34237;BME280;20501;45.956;13.632;2024-01-30T06:19:51;102501.00;;;4.12;56.79
34237;BME280;20501;45.956;13.632;2024-01-30T06:22:16;102495.53;;;3.60;58.47
34237;BME280;20501;45.956;13.632;2024-01-30T06:24:42;102505.34;;;3.87;57.93
34237;BME280;20501;45.956;13.632;2024-01-30T06:27:10;102508.19;;;3.83;58.06
34237;BME280;20501;45.956;13.632;2024-01-30T06:29:35;102512.03;;;4.01;58.68
34237;BME280;20501;45.956;13.632;2024-01-30T06:32:01;102512.84;;;3.76;58.16
34237;BME280;20501;45.956;13.632;2024-01-30T06:34:26;102517.34;;;3.74;58.85
34237;BME280;20501;45.956;13.632;2024-01-30T06:36:52;102524.56;;;3.42;59.75
34237;BME280;20501;45.956;13.632;2024-01-30T06:39:17;102520.59;;;3.55;59.45
34237;BME280;20501;45.956;13.632;2024-01-30T06:41:43;102517.66;;;3.65;58.78
34237;BME280;20501;45.956;13.632;2024-01-30T06:44:09;102515.41;;;3.51;59.78
34237;BME280;20501;45.956;13.632;2024-01-30T06:46:35;102535.59;;;3.61;59.57
34237;BME280;20501;45.956;13.632;2024-01-30T06:49:00;102530.50;;;3.52;59.71
34237;BME280;20501;45.956;13.632;2024-01-30T06:51:26;102528.44;;;3.62;59.42
34237;BME280;20501;45.956;13.632;2024-01-30T06:53:52;102526.75;;;3.29;59.83
34237;BME280;20501;45.956;13.632;2024-01-30T06:56:17;102535.28;;;3.70;58.20
34237;BME280;20501;45.956;13.632;2024-01-30T06:58:47;102534.53;;;3.65;58.84
34237;BME280;20501;45.956;13.632;2024-01-30T07:01:14;102536.09;;;3.72;58.62
34237;BME280;20501;45.956;13.632;2024-01-30T07:03:39;102530.44;;;3.83;58.04
34237;BME280;20501;45.956;13.632;2024-01-30T07:06:05;102531.28;;;3.84;58.38
34237;BME280;20501;45.956;13.632;2024-01-30T07:08:30;102541.22;;;4.09;57.44
34237;BME280;20501;45.956;13.632;2024-01-30T07:10:56;102543.59;;;3.90;58.12
34237;BME280;20501;45.956;13.632;2024-01-30T07:13:21;102538.38;;;3.86;57.94
34237;BME280;20501;45.956;13.632;2024-01-30T07:15:47;102540.75;;;3.96;58.29
34237;BME280;20501;45.956;13.632;2024-01-30T07:18:12;102543.66;;;3.88;58.57
34237;BME280;20501;45.956;13.632;2024-01-30T07:20:39;102540.97;;;3.88;58.41
34237;BME280;20501;45.956;13.632;2024-01-30T07:23:11;102550.28;;;4.05;58.21
34237;BME280;20501;45.956;13.632;2024-01-30T07:25:41;102550.47;;;3.98;58.58
34237;BME280;20501;45.956;13.632;2024-01-30T07:28:10;102551.00;;;4.10;57.85
34237;BME280;20501;45.956;13.632;2024-01-30T07:30:37;102550.84;;;4.14;58.64
34237;BME280;20501;45.956;13.632;2024-01-30T07:33:03;102557.59;;;4.26;58.08
34237;BME280;20501;45.956;13.632;2024-01-30T07:35:28;102557.22;;;4.37;57.17
34237;BME280;20501;45.956;13.632;2024-01-30T07:37:54;102552.66;;;4.41;57.52
34237;BME280;20501;45.956;13.632;2024-01-30T07:40:19;102556.56;;;4.57;57.03
34237;BME280;20501;45.956;13.632;2024-01-30T07:42:45;102548.56;;;5.32;54.49
34237;BME280;20501;45.956;13.632;2024-01-30T07:45:10;102558.53;;;5.98;52.31
34237;BME280;20501;45.956;13.632;2024-01-30T07:47:36;102546.25;;;6.14;52.06
34237;BME280;20501;45.956;13.632;2024-01-30T07:50:01;102549.63;;;6.42;50.69
34237;BME280;20501;45.956;13.632;2024-01-30T07:52:27;102555.72;;;6.45;50.39
34237;BME280;20501;45.956;13.632;2024-01-30T07:54:52;102551.19;;;6.68;49.16
34237;BME280;20501;45.956;13.632;2024-01-30T07:57:18;102544.41;;;6.80;49.83
34237;BME280;20501;45.956;13.632;2024-01-30T07:59:44;102550.72;;;7.00;50.24
34237;BME280;20501;45.956;13.632;2024-01-30T08:02:11;102551.44;;;7.43;48.33
34237;BME280;20501;45.956;13.632;2024-01-30T08:04:37;102558.25;;;7.88;47.61
34237;BME280;20501;45.956;13.632;2024-01-30T08:07:02;102548.84;;;8.16;46.87
34237;BME280;20501;45.956;13.632;2024-01-30T08:09:28;102555.91;;;8.00;47.45
34237;BME280;20501;45.956;13.632;2024-01-30T08:11:53;102555.44;;;7.72;48.36
34237;BME280;20501;45.956;13.632;2024-01-30T08:14:19;102558.16;;;7.53;48.60
34237;BME280;20501;45.956;13.632;2024-01-30T08:16:44;102545.25;;;7.79;49.10
34237;BME280;20501;45.956;13.632;2024-01-30T08:19:10;102558.59;;;8.19;48.52
34237;BME280;20501;45.956;13.632;2024-01-30T08:21:35;102551.31;;;8.21;47.41
34237;BME280;20501;45.956;13.632;2024-01-30T08:24:05;102558.81;;;8.51;46.28
34237;BME280;20501;45.956;13.632;2024-01-30T08:26:32;102555.94;;;9.07;45.17
34237;BME280;20501;45.956;13.632;2024-01-30T08:28:58;102555.69;;;9.45;44.26
34237;BME280;20501;45.956;13.632;2024-01-30T08:31:23;102549.88;;;10.01;42.27
34237;BME280;20501;45.956;13.632;2024-01-30T08:33:49;102555.97;;;10.04;41.92
34237;BME280;20501;45.956;13.632;2024-01-30T08:36:16;102549.78;;;10.34;41.90
34237;BME280;20501;45.956;13.632;2024-01-30T08:38:41;102545.63;;;10.59;41.04
34237;BME280;20501;45.956;13.632;2024-01-30T08:41:07;102543.00;;;10.58;41.89
34237;BME280;20501;45.956;13.632;2024-01-30T08:43:33;102542.22;;;10.56;41.40
34237;BME280;20501;45.956;13.632;2024-01-30T08:45:59;102539.75;;;10.36;41.39
34237;BME280;20501;45.956;13.632;2024-01-30T08:48:25;102543.31;;;10.37;40.58
34237;BME280;20501;45.956;13.632;2024-01-30T08:50:51;102537.28;;;10.48;40.48
34237;BME280;20501;45.956;13.632;2024-01-30T08:53:16;102541.94;;;10.30;40.39
34237;BME280;20501;45.956;13.632;2024-01-30T08:55:42;102545.00;;;10.07;40.87
34237;BME280;20501;45.956;13.632;2024-01-30T08:58:07;102539.28;;;9.98;40.89
34237;BME280;20501;45.956;13.632;2024-01-30T09:00:33;102544.66;;;10.14;40.15
34237;BME280;20501;45.956;13.632;2024-01-30T09:02:58;102536.19;;;10.20;39.12
34237;BME280;20501;45.956;13.632;2024-01-30T09:05:24;102531.88;;;10.32;39.23
34237;BME280;20501;45.956;13.632;2024-01-30T09:07:49;102538.63;;;10.86;39.18
34237;BME280;20501;45.956;13.632;2024-01-30T09:10:15;102539.84;;;11.25;37.48
34237;BME280;20501;45.956;13.632;2024-01-30T09:12:41;102534.91;;;11.17;38.14
34237;BME280;20501;45.956;13.632;2024-01-30T09:15:06;102539.19;;;11.77;36.58
34237;BME280;20501;45.956;13.632;2024-01-30T09:17:32;102535.91;;;12.42;35.25
34237;BME280;20501;45.956;13.632;2024-01-30T09:19:58;102541.03;;;12.59;34.85
34237;BME280;20501;45.956;13.632;2024-01-30T09:22:24;102535.97;;;12.80;33.57
34237;BME280;20501;45.956;13.632;2024-01-30T09:24:49;102540.75;;;13.03;34.92
34237;BME280;20501;45.956;13.632;2024-01-30T09:27:14;102534.47;;;13.41;32.90
34237;BME280;20501;45.956;13.632;2024-01-30T09:29:40;102545.63;;;13.99;32.48
34237;BME280;20501;45.956;13.632;2024-01-30T09:32:06;102540.19;;;13.62;32.38
34237;BME280;20501;45.956;13.632;2024-01-30T09:34:32;102532.78;;;14.01;32.56
34237;BME280;20501;45.956;13.632;2024-01-30T09:36:59;102542.59;;;14.39;32.44
34237;BME280;20501;45.956;13.632;2024-01-30T09:39:25;102544.78;;;14.10;31.79
34237;BME280;20501;45.956;13.632;2024-01-30T09:44:43;102542.94;;;14.95;31.44
34237;BME280;20501;45.956;13.632;2024-01-30T09:47:08;102542.78;;;14.96;31.32
34237;BME280;20501;45.956;13.632;2024-01-30T09:49:35;102541.47;;;15.13;30.97
34237;BME280;20501;45.956;13.632;2024-01-30T09:52:05;102540.31;;;15.05;30.33
34237;BME280;20501;45.956;13.632;2024-01-30T09:54:31;102545.41;;;15.09;30.04
34237;BME280;20501;45.956;13.632;2024-01-30T09:56:57;102538.41;;;14.71;29.65
34237;BME280;20501;45.956;13.632;2024-01-30T09:59:23;102538.47;;;14.94;29.62
34237;BME280;20501;45.956;13.632;2024-01-30T10:01:50;102541.81;;;14.97;29.58
34237;BME280;20501;45.956;13.632;2024-01-30T10:04:15;102539.44;;;15.95;29.33
34237;BME280;20501;45.956;13.632;2024-01-30T10:06:41;102541.44;;;15.82;28.97
34237;BME280;20501;45.956;13.632;2024-01-30T10:09:07;102529.19;;;15.76;29.09
34237;BME280;20501;45.956;13.632;2024-01-30T10:11:33;102534.28;;;16.13;28.35
34237;BME280;20501;45.956;13.632;2024-01-30T10:14:00;102536.81;;;16.37;29.55
34237;BME280;20501;45.956;13.632;2024-01-30T10:16:25;102527.91;;;16.35;27.97
34237;BME280;20501;45.956;13.632;2024-01-30T10:18:51;102533.09;;;16.81;26.61
34237;BME280;20501;45.956;13.632;2024-01-30T10:21:16;102525.91;;;16.59;27.42
34237;BME280;20501;45.956;13.632;2024-01-30T10:23:43;102530.84;;;16.65;27.59
34237;BME280;20501;45.956;13.632;2024-01-30T10:26:09;102525.69;;;17.14;26.79
34237;BME280;20501;45.956;13.632;2024-01-30T10:28:35;102513.28;;;17.00;26.94
34237;BME280;20501;45.956;13.632;2024-01-30T10:31:01;102516.00;;;17.31;26.35
34237;BME280;20501;45.956;13.632;2024-01-30T10:33:27;102511.09;;;17.25;26.46
34237;BME280;20501;45.956;13.632;2024-01-30T10:36:01;102506.88;;;17.52;27.71
34237;BME280;20501;45.956;13.632;2024-01-30T10:38:31;102500.09;;;17.46;27.00
34237;BME280;20501;45.956;13.632;2024-01-30T10:41:01;102496.66;;;17.44;26.15
34237;BME280;20501;45.956;13.632;2024-01-30T10:43:40;102494.97;;;17.72;25.90
34237;BME280;20501;45.956;13.632;2024-01-30T10:46:19;102486.94;;;17.71;25.81
34237;BME280;20501;45.956;13.632;2024-01-30T10:48:57;102481.00;;;17.56;26.58
34237;BME280;20501;45.956;13.632;2024-01-30T10:51:27;102493.22;;;18.02;25.63
34237;BME280;20501;45.956;13.632;2024-01-30T10:53:53;102480.09;;;18.06;25.28
34237;BME280;20501;45.956;13.632;2024-01-30T10:56:22;102475.03;;;17.82;24.73
34237;BME280;20501;45.956;13.632;2024-01-30T10:58:51;102477.75;;;17.91;25.08
34237;BME280;20501;45.956;13.632;2024-01-30T11:01:21;102473.31;;;17.81;26.06
34237;BME280;20501;45.956;13.632;2024-01-30T11:03:53;102465.69;;;17.33;25.56
34237;BME280;20501;45.956;13.632;2024-01-30T11:06:23;102467.41;;;17.35;26.14
34237;BME280;20501;45.956;13.632;2024-01-30T11:09:02;102468.88;;;17.39;25.51
34237;BME280;20501;45.956;13.632;2024-01-30T11:11:29;102454.09;;;17.51;26.31
34237;BME280;20501;45.956;13.632;2024-01-30T11:13:54;102462.63;;;17.17;25.28
34237;BME280;20501;45.956;13.632;2024-01-30T11:16:20;102464.84;;;17.33;25.87
34237;BME280;20501;45.956;13.632;2024-01-30T11:18:50;102452.75;;;17.26;26.01
34237;BME280;20501;45.956;13.632;2024-01-30T11:21:16;102454.94;;;17.01;26.15
34237;BME280;20501;45.956;13.632;2024-01-30T11:23:42;102448.91;;;17.38;25.97
34237;BME280;20501;45.956;13.632;2024-01-30T11:26:10;102435.69;;;17.43;25.70
34237;BME280;20501;45.956;13.632;2024-01-30T11:28:37;102435.97;;;17.50;26.47
34237;BME280;20501;45.956;13.632;2024-01-30T11:31:06;102441.00;;;17.35;25.19
34237;BME280;20501;45.956;13.632;2024-01-30T11:33:32;102431.78;;;17.36;25.49
34237;BME280;20501;45.956;13.632;2024-01-30T11:35:59;102434.72;;;17.64;25.71
34237;BME280;20501;45.956;13.632;2024-01-30T11:38:28;102432.63;;;17.27;26.47
34237;BME280;20501;45.956;13.632;2024-01-30T11:40:57;102423.97;;;17.22;24.83
34237;BME280;20501;45.956;13.632;2024-01-30T11:43:22;102427.16;;;17.27;25.12
34237;BME280;20501;45.956;13.632;2024-01-30T11:45:49;102420.75;;;17.47;25.29
34237;BME280;20501;45.956;13.632;2024-01-30T11:48:14;102421.63;;;17.87;25.61
34237;BME280;20501;45.956;13.632;2024-01-30T11:50:40;102413.75;;;18.14;24.67
34237;BME280;20501;45.956;13.632;2024-01-30T11:53:06;102408.97;;;18.16;24.90
34237;BME280;20501;45.956;13.632;2024-01-30T11:55:32;102411.44;;;18.29;25.09
34237;BME280;20501;45.956;13.632;2024-01-30T11:57:58;102413.84;;;18.41;25.32
34237;BME280;20501;45.956;13.632;2024-01-30T12:00:24;102407.22;;;18.44;24.09
34237;BME280;20501;45.956;13.632;2024-01-30T12:02:54;102404.09;;;18.19;23.58
34237;BME280;20501;45.956;13.632;2024-01-30T12:05:27;102402.66;;;18.15;23.74
34237;BME280;20501;45.956;13.632;2024-01-30T12:07:53;102394.84;;;18.40;24.29
34237;BME280;20501;45.956;13.632;2024-01-30T12:10:18;102398.91;;;18.74;24.08
34237;BME280;20501;45.956;13.632;2024-01-30T12:12:49;102387.03;;;18.93;23.74
34237;BME280;20501;45.956;13.632;2024-01-30T12:15:15;102392.59;;;19.11;23.57
34237;BME280;20501;45.956;13.632;2024-01-30T12:17:41;102387.59;;;18.96;24.00
34237;BME280;20501;45.956;13.632;2024-01-30T12:20:14;102381.00;;;19.17;22.92
34237;BME280;20501;45.956;13.632;2024-01-30T12:22:45;102376.28;;;18.71;23.76
34237;BME280;20501;45.956;13.632;2024-01-30T12:25:13;102371.88;;;18.61;22.93
34237;BME280;20501;45.956;13.632;2024-01-30T12:27:41;102371.78;;;18.43;22.50
34237;BME280;20501;45.956;13.632;2024-01-30T12:30:09;102367.50;;;18.40;23.14
34237;BME280;20501;45.956;13.632;2024-01-30T12:32:42;102373.09;;;18.38;22.90
34237;BME280;20501;45.956;13.632;2024-01-30T12:35:17;102367.97;;;18.16;23.18
34237;BME280;20501;45.956;13.632;2024-01-30T12:37:44;102357.47;;;18.11;24.50
34237;BME280;20501;45.956;13.632;2024-01-30T12:40:10;102352.44;;;17.67;24.21
34237;BME280;20501;45.956;13.632;2024-01-30T12:42:37;102346.09;;;17.47;23.96
34237;BME280;20501;45.956;13.632;2024-01-30T12:45:04;102344.25;;;17.47;24.71